Time;durP1;ratioP1;P1;durP2;ratioP2;P2;SDS_P1;SDS_P2;PMS_P1;PMS_P2;Temp;Humidity;BMP_temperature;BMP_pressure;BME280_temperature;BME280_humidity;BME280_pressure;Samples;Min_cycle;Max_cycle;Signal;HPM_P1;HPM_P2
2023/06/02 00:01:03;;;;;;;11.55;3.03;;;10.70;99.90;;;;;;4994920;28;20376;-76
2023/06/02 00:03:32;;;;;;;13.95;3.28;;;10.70;99.90;;;;;;4994466;28;20049;-75
2023/06/02 00:06:05;;;;;;;11.85;3.40;;;10.70;99.90;;;;;;4994440;28;20054;-75
2023/06/02 00:08:32;;;;;;;15.00;3.25;;;10.70;99.90;;;;;;4995538;28;20038;-75
2023/06/02 00:11:00;;;;;;;13.80;3.28;;;10.70;99.90;;;;;;4995898;28;20113;-76
2023/06/02 00:13:26;;;;;;;12.55;3.28;;;10.70;99.90;;;;;;4978084;28;20042;-75
2023/06/02 00:15:52;;;;;;;10.98;2.88;;;10.70;99.90;;;;;;4978066;28;20054;-76
2023/06/02 00:18:22;;;;;;;14.40;3.25;;;10.70;99.90;;;;;;4994518;28;20042;-76
2023/06/02 00:20:47;;;;;;;10.35;3.20;;;10.70;99.90;;;;;;4995675;28;20057;-76
2023/06/02 00:23:14;;;;;;;16.67;3.22;;;10.60;99.90;;;;;;5010356;28;20387;-75
2023/06/02 00:25:40;;;;;;;15.10;3.20;;;10.60;99.90;;;;;;4981323;28;20038;-76
2023/06/02 00:28:06;;;;;;;15.80;3.22;;;10.70;99.90;;;;;;5013543;28;20038;-76
2023/06/02 00:30:33;;;;;;;12.80;3.15;;;10.60;99.90;;;;;;4997206;28;20071;-76
2023/06/02 00:32:59;;;;;;;13.75;3.10;;;10.70;99.90;;;;;;5014776;28;20150;-75
2023/06/02 00:35:25;;;;;;;15.02;3.50;;;10.60;99.90;;;;;;5013392;28;20125;-76
2023/06/02 00:37:52;;;;;;;14.15;3.53;;;10.60;99.90;;;;;;5014611;28;20045;-75
2023/06/02 00:40:18;;;;;;;15.68;3.60;;;10.60;99.90;;;;;;5013599;28;20124;-76
2023/06/02 00:42:43;;;;;;;12.88;3.20;;;10.60;99.90;;;;;;4997435;28;20124;-75
2023/06/02 00:45:09;;;;;;;14.25;3.30;;;10.60;99.90;;;;;;5013640;28;20048;-75
2023/06/02 00:47:35;;;;;;;13.68;3.60;;;10.60;99.90;;;;;;5013484;28;20049;-76
2023/06/02 00:50:01;;;;;;;18.42;3.53;;;10.60;99.90;;;;;;5013184;28;20042;-76
2023/06/02 00:52:28;;;;;;;17.77;3.83;;;10.50;99.90;;;;;;4980743;28;20474;-75
2023/06/02 00:54:56;;;;;;;14.88;3.25;;;10.60;99.90;;;;;;5013133;28;20414;-75
2023/06/02 00:57:28;;;;;;;14.70;3.25;;;10.50;99.90;;;;;;5012995;28;20129;-75
2023/06/02 00:59:57;;;;;;;;;;;10.50;99.90;;;;;;5013514;28;20164;-75
2023/06/02 01:02:23;;;;;;;17.38;3.58;;;10.50;99.90;;;;;;5014204;28;19924;-76
2023/06/02 01:04:52;;;;;;;15.75;3.70;;;10.50;99.90;;;;;;5012967;28;20434;-75
2023/06/02 01:07:25;;;;;;;17.60;3.67;;;10.50;99.90;;;;;;5012879;28;20048;-75
2023/06/02 01:10:02;;;;;;;15.25;3.60;;;10.40;99.90;;;;;;5012797;28;20133;-75
2023/06/02 01:12:28;;;;;;;15.30;3.35;;;10.40;99.90;;;;;;5012854;28;20157;-75
2023/06/02 01:14:54;;;;;;;13.70;3.40;;;10.40;99.90;;;;;;4996693;28;20128;-75
2023/06/02 01:17:27;;;;;;;15.43;3.80;;;10.40;99.90;;;;;;4996447;28;20574;-75
2023/06/02 01:19:54;;;;;;;12.00;3.45;;;10.40;99.90;;;;;;5012687;28;20046;-75
2023/06/02 01:22:23;;;;;;;16.20;3.40;;;10.40;99.90;;;;;;4980064;28;20136;-75
2023/06/02 01:24:49;;;;;;;14.13;3.40;;;10.30;99.90;;;;;;4996670;28;20490;-75
2023/06/02 01:27:16;;;;;;;15.80;3.53;;;10.30;99.90;;;;;;5012570;28;20088;-75
2023/06/02 01:29:44;;;;;;;16.70;3.47;;;10.30;99.90;;;;;;5012558;28;20034;-75
2023/06/02 01:32:29;;;;;;;14.10;3.28;;;10.30;99.90;;;;;;5012482;28;20053;-75
2023/06/02 01:35:07;;;;;;;16.63;3.80;;;10.30;99.90;;;;;;5014020;28;20042;-75
2023/06/02 01:37:35;;;;;;;16.42;3.20;;;10.30;99.90;;;;;;4996063;28;20052;-75
2023/06/02 01:40:03;;;;;;;14.73;3.53;;;10.20;99.90;;;;;;5013705;28;20088;-75
2023/06/02 01:42:30;;;;;;;18.00;3.60;;;10.20;99.90;;;;;;5012761;28;20053;-74
2023/06/02 01:44:57;;;;;;;16.65;3.30;;;10.20;99.90;;;;;;4996356;28;20050;-74
2023/06/02 01:47:23;;;;;;;16.35;3.63;;;10.20;99.90;;;;;;5012387;28;20125;-74
2023/06/02 01:49:49;;;;;;;17.02;3.30;;;10.20;99.90;;;;;;5013767;28;20045;-74
2023/06/02 01:52:15;;;;;;;14.82;3.47;;;10.20;99.90;;;;;;5012262;28;20041;-74
2023/06/02 01:54:43;;;;;;;14.55;3.13;;;10.20;99.90;;;;;;5012746;28;20485;-74
2023/06/02 01:57:09;;;;;;;14.40;3.28;;;10.20;99.90;;;;;;4996913;28;20046;-73
2023/06/02 01:59:36;;;;;;;14.57;3.38;;;10.20;99.90;;;;;;4996765;28;20046;-74
2023/06/02 02:02:02;;;;;;;17.13;3.80;;;10.20;99.90;;;;;;5013234;28;20050;-74
2023/06/02 02:04:29;;;;;;;15.07;3.42;;;10.20;99.90;;;;;;5014111;28;20053;-75
2023/06/02 02:06:55;;;;;;;15.75;3.58;;;10.30;99.90;;;;;;5012113;28;20037;-74
2023/06/02 02:09:21;;;;;;;11.95;3.30;;;10.30;99.90;;;;;;5012237;28;20038;-74
2023/06/02 02:11:50;;;;;;;14.65;3.40;;;10.30;99.90;;;;;;5012155;28;20573;-75
2023/06/02 02:14:16;;;;;;;16.10;3.50;;;10.30;99.90;;;;;;5012213;28;20046;-75
2023/06/02 02:16:45;;;;;;;18.35;3.55;;;10.30;99.90;;;;;;4997437;28;20045;-75
2023/06/02 02:19:16;;;;;;;12.48;3.20;;;10.30;99.90;;;;;;5000368;28;20093;-74
2023/06/02 02:21:42;;;;;;;14.45;3.63;;;10.30;99.90;;;;;;5015853;28;20045;-74
2023/06/02 02:24:08;;;;;;;13.55;3.22;;;10.30;99.90;;;;;;5017111;28;20057;-74
2023/06/02 02:26:35;;;;;;;13.10;3.08;;;10.40;99.90;;;;;;4999955;28;20394;-74
2023/06/02 02:29:01;;;;;;;12.45;3.42;;;10.30;99.90;;;;;;4967387;28;20046;-74
2023/06/02 02:31:27;;;;;;;17.20;3.58;;;10.30;99.90;;;;;;4999719;28;20041;-75
2023/06/02 02:33:53;;;;;;;13.63;3.40;;;10.30;99.90;;;;;;5015934;28;20085;-75
2023/06/02 02:36:19;;;;;;;13.80;3.10;;;10.30;99.90;;;;;;5015783;28;20111;-74
2023/06/02 02:38:47;;;;;;;16.67;3.60;;;10.40;99.90;;;;;;5015930;28;20050;-75
2023/06/02 02:41:13;;;;;;;14.20;3.20;;;10.30;99.90;;;;;;4999250;28;20049;-75
2023/06/02 02:43:39;;;;;;;13.82;2.88;;;10.40;99.90;;;;;;5016784;28;20042;-75
2023/06/02 02:46:05;;;;;;;12.98;3.20;;;10.40;99.90;;;;;;5015416;28;20050;-75
2023/06/02 02:48:32;;;;;;;16.95;3.70;;;10.40;99.90;;;;;;5015533;28;20049;-75
2023/06/02 02:50:58;;;;;;;13.98;3.45;;;10.40;99.90;;;;;;4999692;28;20544;-75
2023/06/02 02:53:24;;;;;;;11.90;2.95;;;10.40;99.90;;;;;;5015660;28;20034;-75
2023/06/02 02:55:51;;;;;;;16.60;3.20;;;10.40;99.90;;;;;;5015495;28;20057;-76
2023/06/02 02:58:18;;;;;;;14.43;3.25;;;10.40;99.90;;;;;;4999251;28;20100;-75
2023/06/02 03:00:47;;;;;;;12.50;3.17;;;10.50;99.90;;;;;;5016486;28;20104;-76
2023/06/02 03:03:13;;;;;;;15.07;3.20;;;10.40;99.90;;;;;;4999541;28;20048;-75
2023/06/02 03:05:41;;;;;;;13.77;3.35;;;10.50;99.90;;;;;;4982674;28;20046;-76
2023/06/02 03:08:09;;;;;;;14.50;2.97;;;10.50;99.90;;;;;;5015395;28;20045;-75
2023/06/02 03:10:39;;;;;;;15.77;3.33;;;10.50;99.90;;;;;;4982878;28;20060;-75
2023/06/02 03:13:12;;;;;;;14.48;3.10;;;10.50;99.90;;;;;;5014921;28;20041;-75
2023/06/02 03:15:39;;;;;;;15.00;3.25;;;10.50;99.90;;;;;;4999072;28;20077;-76
2023/06/02 03:18:04;;;;;;;14.25;3.20;;;10.50;99.90;;;;;;4998898;28;20046;-75
2023/06/02 03:20:31;;;;;;;13.07;2.95;;;10.50;99.90;;;;;;5014961;28;20070;-76
2023/06/02 03:22:58;;;;;;;18.52;3.25;;;10.50;99.90;;;;;;5014703;28;20064;-76
2023/06/02 03:25:23;;;;;;;16.05;3.20;;;10.50;99.90;;;;;;5014824;28;20042;-75
2023/06/02 03:27:50;;;;;;;14.32;3.13;;;10.60;99.90;;;;;;5014905;28;20091;-76
2023/06/02 03:30:17;;;;;;;14.50;2.90;;;10.50;99.90;;;;;;5015050;28;20117;-76
2023/06/02 03:32:42;;;;;;;14.10;3.15;;;10.50;99.90;;;;;;5014933;28;20044;-75
2023/06/02 03:35:08;;;;;;;14.52;2.92;;;10.50;99.90;;;;;;4998300;28;20494;-75
2023/06/02 03:37:34;;;;;;;11.98;3.25;;;10.50;99.90;;;;;;5014970;28;20041;-74
2023/06/02 03:40:00;;;;;;;17.75;3.20;;;10.50;99.90;;;;;;5016073;28;20072;-75
2023/06/02 03:42:26;;;;;;;16.15;3.35;;;10.50;99.90;;;;;;5014841;28;20042;-76
2023/06/02 03:44:51;;;;;;;17.05;3.35;;;10.50;99.90;;;;;;5014414;28;20113;-75
2023/06/02 03:47:20;;;;;;;14.30;3.20;;;10.50;99.90;;;;;;4998146;28;20046;-75
2023/06/02 03:49:46;;;;;;;15.15;3.15;;;10.50;99.90;;;;;;4998825;28;20049;-76
2023/06/02 03:52:12;;;;;;;15.15;3.10;;;10.50;99.90;;;;;;5014275;28;20038;-76
2023/06/02 03:54:38;;;;;;;16.20;3.20;;;10.50;99.90;;;;;;5014596;28;20398;-76
2023/06/02 03:57:04;;;;;;;17.83;3.28;;;10.50;99.90;;;;;;5014554;28;20077;-76
2023/06/02 03:59:30;;;;;;;16.90;3.50;;;10.60;99.90;;;;;;5014347;28;20045;-75
2023/06/02 04:01:56;;;;;;;19.02;3.45;;;10.60;99.90;;;;;;4998331;28;20393;-75
2023/06/02 04:04:21;;;;;;;14.65;3.30;;;10.60;99.90;;;;;;5013999;28;20042;-75
2023/06/02 04:06:50;;;;;;;13.48;3.33;;;10.60;99.90;;;;;;5013974;28;20200;-75
2023/06/02 04:09:16;;;;;;;18.25;3.47;;;10.60;99.90;;;;;;5014302;28;20379;-76
2023/06/02 04:11:42;;;;;;;15.05;3.47;;;10.60;99.90;;;;;;5014266;28;20076;-76
2023/06/02 04:14:08;;;;;;;13.43;3.00;;;10.60;99.90;;;;;;5014060;28;20069;-75
2023/06/02 04:16:34;;;;;;;14.50;3.17;;;10.60;99.90;;;;;;5014073;28;20038;-75
2023/06/02 04:19:00;;;;;;;17.23;3.40;;;10.60;99.90;;;;;;5014124;28;20038;-75
2023/06/02 04:21:26;;;;;;;13.75;3.30;;;10.60;99.90;;;;;;5015195;28;20128;-76
2023/06/02 04:23:52;;;;;;;16.00;3.10;;;10.60;99.90;;;;;;5014881;28;20089;-76
2023/06/02 04:26:17;;;;;;;15.90;3.42;;;10.60;99.90;;;;;;4997346;28;20042;-76
2023/06/02 04:28:43;;;;;;;16.30;3.38;;;10.70;99.90;;;;;;4997407;28;20413;-77
2023/06/02 04:31:12;;;;;;;11.10;2.72;;;10.70;99.90;;;;;;4982103;28;20068;-76
2023/06/02 04:33:37;;;;;;;14.23;3.28;;;10.70;99.90;;;;;;4997249;28;20034;-77
2023/06/02 04:36:05;;;;;;;17.77;3.33;;;10.80;99.90;;;;;;5013501;28;20116;-76
2023/06/02 04:38:31;;;;;;;13.40;3.22;;;10.70;99.90;;;;;;4997092;28;20096;-75
2023/06/02 04:40:57;;;;;;;14.55;3.22;;;10.80;99.90;;;;;;5013151;28;20049;-75
2023/06/02 04:43:23;;;;;;;17.40;3.58;;;10.80;99.90;;;;;;4997300;28;20041;-75
2023/06/02 04:45:49;;;;;;;13.93;2.92;;;10.90;99.90;;;;;;5013230;28;20050;-76
2023/06/02 04:48:14;;;;;;;16.27;3.35;;;10.80;99.90;;;;;;5013271;28;20064;-75
2023/06/02 04:50:40;;;;;;;18.20;3.60;;;10.90;99.90;;;;;;4980777;28;20037;-75
2023/06/02 04:53:06;;;;;;;18.42;3.38;;;10.90;99.90;;;;;;4997249;28;20505;-75
2023/06/02 04:55:32;;;;;;;18.77;3.67;;;11.00;99.90;;;;;;4996872;28;20057;-75
2023/06/02 04:57:58;;;;;;;14.02;3.35;;;11.00;99.90;;;;;;4997076;28;20129;-74
2023/06/02 05:00:24;;;;;;;17.17;3.45;;;11.10;99.90;;;;;;4996810;28;20628;-75
2023/06/02 05:02:50;;;;;;;14.10;3.28;;;11.10;99.90;;;;;;4996692;28;20041;-75
2023/06/02 05:05:16;;;;;;;17.88;3.72;;;11.10;99.90;;;;;;4980436;28;20056;-76
2023/06/02 05:07:45;;;;;;;17.27;2.97;;;11.10;99.90;;;;;;5013240;28;20124;-75
2023/06/02 05:10:13;;;;;;;15.20;3.45;;;11.10;99.90;;;;;;4981476;28;20037;-75
2023/06/02 05:12:41;;;;;;;16.52;3.42;;;11.20;99.90;;;;;;5012835;28;20117;-76
2023/06/02 05:15:08;;;;;;;18.17;3.50;;;11.30;99.90;;;;;;5014091;28;20046;-75
2023/06/02 05:17:33;;;;;;;14.40;3.15;;;11.20;99.90;;;;;;5012742;28;20112;-76
2023/06/02 05:19:59;;;;;;;16.00;3.22;;;11.30;99.90;;;;;;5012699;28;20041;-76
2023/06/02 05:22:27;;;;;;;19.17;3.33;;;11.30;99.90;;;;;;5013689;28;20410;-77
2023/06/02 05:24:56;;;;;;;16.20;3.50;;;11.40;99.90;;;;;;5012577;28;20061;-76
2023/06/02 05:27:31;;;;;;;16.50;3.63;;;11.40;99.90;;;;;;5012869;28;20398;-76
2023/06/02 05:29:56;;;;;;;19.65;3.33;;;11.50;99.90;;;;;;5012706;28;20037;-76
2023/06/02 05:32:24;;;;;;;14.93;3.28;;;11.50;99.90;;;;;;5012513;28;20052;-77
2023/06/02 05:34:51;;;;;;;13.27;3.25;;;11.50;99.90;;;;;;4996850;28;20084;-76
2023/06/02 05:37:17;;;;;;;13.32;3.33;;;11.50;99.90;;;;;;4996389;28;20084;-76
2023/06/02 05:39:46;;;;;;;19.08;3.75;;;11.60;99.90;;;;;;4996339;28;20371;-76
2023/06/02 05:42:12;;;;;;;14.77;3.47;;;11.60;99.90;;;;;;5012432;28;20038;-76
2023/06/02 05:44:37;;;;;;;15.57;3.78;;;11.60;99.90;;;;;;5012357;28;20544;-76
2023/06/02 05:47:03;;;;;;;16.10;3.58;;;11.60;99.90;;;;;;5012315;28;20052;-76
2023/06/02 05:49:29;;;;;;;15.68;3.30;;;11.60;99.90;;;;;;4996121;28;20045;-76
2023/06/02 05:51:55;;;;;;;15.73;3.50;;;11.60;99.90;;;;;;4979719;28;20041;-76
2023/06/02 05:54:21;;;;;;;17.90;3.45;;;11.70;99.90;;;;;;5012416;28;20050;-76
2023/06/02 05:56:46;;;;;;;12.30;3.15;;;11.70;99.90;;;;;;4995852;28;20164;-76
2023/06/02 05:59:12;;;;;;;17.60;3.50;;;11.70;99.90;;;;;;5012092;28;20088;-75
2023/06/02 06:01:41;;;;;;;19.55;3.75;;;11.70;99.90;;;;;;4979661;28;20038;-76
2023/06/02 06:04:07;;;;;;;17.98;3.58;;;11.80;99.90;;;;;;5013253;28;20034;-77
2023/06/02 06:06:32;;;;;;;19.90;4.03;;;11.80;99.90;;;;;;4995727;28;20038;-76
2023/06/02 06:09:01;;;;;;;19.05;3.75;;;11.80;99.90;;;;;;4963430;28;20043;-76
2023/06/02 06:11:27;;;;;;;20.83;4.15;;;11.90;99.90;;;;;;5013340;28;20053;-76
2023/06/02 06:13:53;;;;;;;20.77;4.03;;;11.90;99.90;;;;;;4995780;28;20041;-76
2023/06/02 06:16:19;;;;;;;17.73;3.58;;;11.90;99.90;;;;;;5013479;28;20394;-76
2023/06/02 06:18:45;;;;;;;17.63;3.58;;;12.00;99.90;;;;;;4995815;28;20486;-76
2023/06/02 06:21:11;;;;;;;22.20;3.95;;;12.00;99.90;;;;;;5011884;28;20137;-76
2023/06/02 06:23:37;;;;;;;18.80;3.78;;;12.00;99.90;;;;;;5011769;28;20414;-76
2023/06/02 06:26:03;;;;;;;17.73;3.67;;;12.10;99.90;;;;;;5011794;28;20100;-77
2023/06/02 06:28:28;;;;;;;22.52;4.40;;;12.10;99.90;;;;;;5012033;28;20041;-77
2023/06/02 06:30:54;;;;;;;19.38;4.10;;;12.10;99.90;;;;;;5012986;28;20034;-77
2023/06/02 06:33:20;;;;;;;19.13;4.03;;;12.10;99.90;;;;;;5012152;28;20246;-77
2023/06/02 06:35:46;;;;;;;19.45;4.15;;;12.20;99.90;;;;;;4979267;28;20049;-77
2023/06/02 06:38:12;;;;;;;20.85;4.20;;;12.20;99.90;;;;;;4995744;28;20042;-77
2023/06/02 06:40:37;;;;;;;18.98;4.00;;;12.20;99.90;;;;;;5012060;28;20046;-74
2023/06/02 06:43:03;;;;;;;22.05;4.50;;;12.20;99.90;;;;;;4995345;28;20052;-77
2023/06/02 06:45:29;;;;;;;24.88;4.68;;;12.30;99.90;;;;;;5012891;28;20402;-78
2023/06/02 06:47:55;;;;;;;22.02;4.55;;;12.30;99.90;;;;;;5011867;28;20121;-77
2023/06/02 06:50:21;;;;;;;20.00;4.38;;;12.40;99.90;;;;;;5011707;28;20052;-75
2023/06/02 06:52:48;;;;;;;22.58;4.40;;;12.50;99.90;;;;;;4979331;28;20030;-75
2023/06/02 06:55:14;;;;;;;23.17;4.70;;;12.60;99.90;;;;;;5010106;28;20375;-77
2023/06/02 06:57:40;;;;;;;19.08;4.55;;;12.80;99.90;;;;;;4995479;28;20048;-76
2023/06/02 07:00:06;;;;;;;20.42;4.60;;;12.90;99.90;;;;;;4995504;28;20041;-77
2023/06/02 07:02:32;;;;;;;21.80;5.00;;;13.00;99.90;;;;;;5010977;28;20124;-76
2023/06/02 07:04:58;;;;;;;19.73;4.90;;;13.10;99.90;;;;;;5015351;28;20056;-75
2023/06/02 07:07:24;;;;;;;18.50;4.60;;;13.10;99.90;;;;;;5013011;28;20128;-76
2023/06/02 07:09:50;;;;;;;21.00;4.65;;;13.20;99.90;;;;;;5014097;28;20096;-76
2023/06/02 07:12:16;;;;;;;20.23;4.78;;;13.30;99.90;;;;;;5015487;28;20096;-76
2023/06/02 07:14:41;;;;;;;23.98;4.65;;;13.40;99.90;;;;;;5015258;28;20053;-75
2023/06/02 07:17:08;;;;;;;18.40;4.88;;;13.40;99.90;;;;;;5015464;28;20048;-75
2023/06/02 07:19:34;;;;;;;25.23;5.28;;;13.50;99.90;;;;;;5015854;28;20042;-75
2023/06/02 07:22:00;;;;;;;20.17;5.00;;;13.40;99.90;;;;;;5015373;28;20050;-76
2023/06/02 07:24:26;;;;;;;19.05;4.72;;;13.50;99.90;;;;;;4999573;28;20076;-73
2023/06/02 07:26:52;;;;;;;20.08;4.85;;;13.50;99.90;;;;;;4999686;28;20107;-75
2023/06/02 07:29:18;;;;;;;20.90;4.95;;;13.50;99.90;;;;;;5016256;28;20034;-75
2023/06/02 07:31:44;;;;;;;22.70;5.25;;;13.50;99.90;;;;;;4998932;28;20038;-75
2023/06/02 07:34:10;;;;;;;19.48;4.82;;;13.50;99.90;;;;;;5016530;28;20052;-73
2023/06/02 07:36:36;;;;;;;23.27;5.15;;;13.60;99.90;;;;;;5016163;28;20041;-75
2023/06/02 07:39:02;;;;;;;18.73;4.53;;;13.60;99.90;;;;;;5014828;28;20564;-75
2023/06/02 07:41:27;;;;;;;21.75;5.68;;;13.70;99.90;;;;;;5016414;28;20045;-76
2023/06/02 07:43:54;;;;;;;22.65;5.53;;;13.80;99.90;;;;;;5014849;28;20046;-74
2023/06/02 07:46:20;;;;;;;21.73;5.43;;;13.80;99.90;;;;;;5015890;28;20038;-75
2023/06/02 07:48:46;;;;;;;25.05;5.43;;;14.00;99.90;;;;;;5014563;28;20073;-76
2023/06/02 07:51:12;;;;;;;25.33;5.82;;;14.50;99.90;;;;;;4998418;28;20142;-75
2023/06/02 07:53:40;;;;;;;19.50;5.38;;;15.00;99.90;;;;;;4995202;28;20425;-76
2023/06/02 07:56:06;;;;;;;21.52;5.38;;;15.50;99.90;;;;;;4995232;28;20129;-76
2023/06/02 07:58:32;;;;;;;19.80;4.97;;;15.70;99.90;;;;;;4994875;28;20101;-76
2023/06/02 08:00:58;;;;;;;17.88;5.05;;;16.00;99.90;;;;;;4978912;28;20406;-76
2023/06/02 08:03:23;;;;;;;21.13;5.18;;;16.30;99.90;;;;;;4994821;28;20065;-76
2023/06/02 08:05:49;;;;;;;20.77;5.72;;;16.60;99.90;;;;;;4994845;28;20485;-76
2023/06/02 08:08:15;;;;;;;21.30;5.38;;;16.60;99.90;;;;;;4978639;28;20046;-76
2023/06/02 08:10:41;;;;;;;16.42;4.90;;;16.80;99.90;;;;;;4994506;28;20093;-76
2023/06/02 08:13:08;;;;;;;18.15;5.50;;;16.80;99.90;;;;;;4977951;28;20050;-76
2023/06/02 08:15:34;;;;;;;18.67;5.88;;;16.70;99.90;;;;;;4995191;28;20094;-76
2023/06/02 08:17:59;;;;;;;20.45;5.53;;;16.80;99.90;;;;;;4994376;28;20081;-76
2023/06/02 08:20:25;;;;;;;20.10;5.43;;;16.70;99.90;;;;;;4994171;28;20050;-76
2023/06/02 08:22:51;;;;;;;18.83;5.43;;;16.60;99.90;;;;;;5008731;28;20203;-76
2023/06/02 08:25:17;;;;;;;18.65;5.20;;;16.60;99.90;;;;;;5013877;28;20061;-76
2023/06/02 08:27:44;;;;;;;17.48;4.93;;;16.70;99.90;;;;;;5013651;28;20046;-76
2023/06/02 08:30:11;;;;;;;19.40;5.20;;;17.10;99.90;;;;;;5013923;28;20483;-76
2023/06/02 08:32:37;;;;;;;14.98;4.50;;;17.70;99.90;;;;;;5014817;28;20046;-76
2023/06/02 08:35:03;;;;;;;16.15;4.45;;;17.80;99.90;;;;;;5013778;28;20129;-76
2023/06/02 08:37:32;;;;;;;33.55;5.85;;;18.30;99.90;;;;;;5013527;28;20050;-76
2023/06/02 08:39:58;;;;;;;17.23;4.22;;;18.90;99.90;;;;;;5013420;28;20045;-76
2023/06/02 08:42:26;;;;;;;16.98;4.55;;;19.30;99.90;;;;;;4980871;28;20085;-76
2023/06/02 08:44:52;;;;;;;17.95;4.50;;;18.90;99.90;;;;;;5013549;28;20124;-76
2023/06/02 08:47:25;;;;;;;14.52;4.50;;;19.10;99.90;;;;;;5013277;28;20126;-76
2023/06/02 08:49:51;;;;;;;14.45;3.97;;;19.20;98.10;;;;;;5014825;28;20038;-76
2023/06/02 08:52:27;;;;;;;16.40;3.83;;;19.00;97.10;;;;;;4997004;28;20038;-77
2023/06/02 08:54:55;;;;;;;12.68;3.30;;;18.80;98.40;;;;;;4996837;28;20045;-75
2023/06/02 08:57:22;;;;;;;12.10;3.30;;;19.00;99.60;;;;;;5013185;28;20124;-75
2023/06/02 08:59:49;;;;;;;12.68;3.28;;;19.40;98.70;;;;;;5013200;28;20046;-76
2023/06/02 09:02:15;;;;;;;12.45;3.33;;;19.70;97.70;;;;;;5014556;28;20041;-76
2023/06/02 09:04:47;;;;;;;13.73;3.30;;;19.50;94.70;;;;;;5013170;28;20461;-75
2023/06/02 09:07:13;;;;;;;15.25;3.78;;;20.00;93.70;;;;;;5014446;28;20498;-77
2023/06/02 09:09:41;;;;;;;12.27;3.30;;;20.20;90.80;;;;;;5012864;28;20053;-77
2023/06/02 09:12:08;;;;;;;12.35;3.60;;;20.40;91.70;;;;;;5012943;28;20077;-76
2023/06/02 09:14:38;;;;;;;10.02;2.97;;;20.70;93.50;;;;;;5014196;28;20413;-76
2023/06/02 09:17:26;;;;;;;15.52;3.72;;;20.70;87.70;;;;;;5012725;28;20049;-77
2023/06/02 09:19:55;;;;;;;12.35;3.55;;;20.00;89.80;;;;;;5013004;28;20385;-76
2023/06/02 09:22:21;;;;;;;13.30;3.63;;;20.30;91.50;;;;;;5012816;28;21247;-76
2023/06/02 09:24:49;;;;;;;13.00;3.25;;;20.70;92.60;;;;;;4996002;28;20542;-77
2023/06/02 09:27:20;;;;;;;11.85;2.92;;;20.70;90.60;;;;;;5012812;28;20440;-77
2023/06/02 09:29:47;;;;;;;10.93;3.15;;;20.90;89.70;;;;;;4996267;28;20045;-77
2023/06/02 09:32:18;;;;;;;11.57;3.30;;;20.80;85.40;;;;;;4996607;28;20042;-76
2023/06/02 09:34:45;;;;;;;13.45;3.40;;;20.70;84.20;;;;;;5012473;28;20077;-75
2023/06/02 09:37:13;;;;;;;11.75;3.15;;;20.70;87.50;;;;;;5012470;28;20057;-76
2023/06/02 09:39:57;;;;;;;12.85;3.42;;;20.50;85.00;;;;;;5013682;28;20046;-75
2023/06/02 09:42:23;;;;;;;11.60;3.20;;;20.50;90.20;;;;;;5012668;28;20406;-76
2023/06/02 09:45:08;;;;;;;11.75;2.70;;;21.00;89.10;;;;;;5012498;28;20042;-77
2023/06/02 09:47:40;;;;;;;11.35;3.17;;;21.10;84.70;;;;;;4980272;28;20445;-77
2023/06/02 09:50:07;;;;;;;;;;;21.20;84.50;;;;;;5013091;28;20038;-77
2023/06/02 09:52:32;;;;;;;12.80;3.20;;;21.50;90.20;;;;;;5012233;28;19971;-76
2023/06/02 09:54:59;;;;;;;12.60;3.30;;;21.70;88.80;;;;;;5012147;28;20045;-77
2023/06/02 09:57:25;;;;;;;15.70;3.20;;;21.30;88.00;;;;;;5012391;28;20559;-77
2023/06/02 09:59:51;;;;;;;12.23;3.17;;;20.80;85.90;;;;;;5013413;28;20120;-77
2023/06/02 10:02:18;;;;;;;10.20;2.95;;;20.40;87.80;;;;;;5012272;28;20044;-77
2023/06/02 10:04:46;;;;;;;10.45;3.00;;;20.10;87.00;;;;;;5012220;28;20379;-77
2023/06/02 10:07:49;;;;;;;14.77;3.22;;;19.80;90.30;;;;;;5012144;28;20153;-77
2023/06/02 10:10:39;;;;;;;11.20;3.45;;;19.50;93.00;;;;;;5013312;28;20038;-77
2023/06/02 10:13:40;;;;;;;12.98;3.00;;;20.00;92.80;;;;;;5012574;28;20088;-77
2023/06/02 10:16:37;;;;;;;12.10;2.60;;;20.70;90.30;;;;;;4999171;28;20079;-76
2023/06/02 10:19:23;;;;;;;11.30;3.17;;;20.50;86.40;;;;;;5012213;28;20564;-77
2023/06/02 10:22:34;;;;;;;11.05;2.97;;;20.10;86.90;;;;;;5012272;28;20040;-77
2023/06/02 10:25:17;;;;;;;13.70;3.03;;;19.80;90.60;;;;;;4974883;28;20046;-77
2023/06/02 10:27:47;;;;;;;9.77;2.85;;;19.60;89.60;;;;;;5012048;28;20038;-76
2023/06/02 10:30:20;;;;;;;10.85;2.60;;;19.90;90.90;;;;;;4995866;28;20050;-77
2023/06/02 10:32:50;;;;;;;9.85;2.70;;;20.40;89.30;;;;;;5012028;28;20053;-76
2023/06/02 10:35:17;;;;;;;10.00;2.33;;;20.80;89.50;;;;;;5012091;28;20038;-77
2023/06/02 10:37:44;;;;;;;10.25;2.60;;;20.70;88.30;;;;;;4997606;28;20048;-77
2023/06/02 10:40:10;;;;;;;9.25;2.55;;;20.30;87.30;;;;;;5017020;28;20445;-77
2023/06/02 10:42:37;;;;;;;9.20;2.50;;;19.90;88.30;;;;;;5017185;28;20037;-77
2023/06/02 10:45:26;;;;;;;10.65;2.70;;;19.80;90.40;;;;;;4999160;28;20081;-76
2023/06/02 10:47:52;;;;;;;9.02;2.40;;;19.70;88.60;;;;;;5015904;28;20565;-77
2023/06/02 10:50:21;;;;;;;9.35;2.35;;;19.60;90.10;;;;;;5016752;28;20073;-75
2023/06/02 10:52:59;;;;;;;8.45;2.13;;;19.50;90.00;;;;;;5016955;28;20038;-76
2023/06/02 10:55:33;;;;;;;7.97;2.20;;;19.50;88.80;;;;;;5015749;28;20375;-76
2023/06/02 10:58:03;;;;;;;9.70;2.28;;;19.50;90.50;;;;;;5015709;28;20046;-76
2023/06/02 11:00:45;;;;;;;6.22;2.10;;;19.70;90.30;;;;;;4999234;28;20083;-76
2023/06/02 11:03:17;;;;;;;;;;;20.00;87.20;;;;;;5015984;28;20057;-76
2023/06/02 11:05:45;;;;;;;7.32;1.90;;;19.70;82.80;;;;;;5015200;28;19928;-77
2023/06/02 11:08:21;;;;;;;6.93;1.95;;;19.80;84.00;;;;;;4999172;28;20045;-77
2023/06/02 11:10:55;;;;;;;8.88;1.90;;;19.80;85.10;;;;;;5015241;28;20041;-76
2023/06/02 11:13:27;;;;;;;7.07;1.90;;;19.80;82.50;;;;;;5015360;28;20076;-77
2023/06/02 11:15:59;;;;;;;7.93;1.80;;;19.60;82.00;;;;;;4999708;28;20589;-77
2023/06/02 11:20:58;;;;;;;5.72;1.92;;;19.90;81.50;;;;;;5016264;28;20046;-77
2023/06/02 11:23:25;;;;;;;8.23;1.75;;;20.30;82.90;;;;;;4998748;28;20053;-77
2023/06/02 11:26:11;;;;;;;6.75;1.70;;;20.50;79.30;;;;;;4998603;28;20054;-77
2023/06/02 11:28:37;;;;;;;9.85;2.10;;;20.80;77.80;;;;;;4998535;28;20037;-77
2023/06/02 11:31:13;;;;;;;7.60;2.05;;;21.00;77.50;;;;;;5014596;28;20134;-77
2023/06/02 11:33:51;;;;;;;10.93;2.00;;;21.60;75.60;;;;;;5015042;28;20104;-77
2023/06/02 11:36:28;;;;;;;6.28;1.90;;;22.10;73.30;;;;;;4998470;28;20096;-77
2023/06/02 11:39:04;;;;;;;7.03;2.00;;;21.80;68.40;;;;;;4998336;28;20042;-77
2023/06/02 11:41:30;;;;;;;6.63;2.10;;;21.40;68.30;;;;;;5014785;28;20517;-78
2023/06/02 11:44:06;;;;;;;6.90;1.90;;;21.10;72.20;;;;;;4998311;28;20073;-75
2023/06/02 11:46:33;;;;;;;6.43;1.80;;;21.00;69.30;;;;;;5014372;28;20100;-76
2023/06/02 11:49:00;;;;;;;6.15;1.70;;;20.80;69.30;;;;;;4998294;28;20092;-75
2023/06/02 11:51:26;;;;;;;6.55;1.83;;;21.10;70.80;;;;;;4998249;28;20053;-76
2023/06/02 11:54:02;;;;;;;7.15;1.90;;;21.50;70.30;;;;;;5014320;28;20042;-75
2023/06/02 11:56:28;;;;;;;10.93;2.17;;;21.50;67.00;;;;;;4998336;28;20041;-78
2023/06/02 11:58:54;;;;;;;10.85;2.50;;;21.20;68.00;;;;;;4998149;28;20046;-76
2023/06/02 12:01:21;;;;;;;16.40;2.38;;;21.30;69.30;;;;;;4997809;28;20049;-77
2023/06/02 12:04:05;;;;;;;19.17;2.78;;;21.40;67.50;;;;;;4998500;28;20104;-76
2023/06/02 12:06:32;;;;;;;6.65;1.70;;;21.50;64.80;;;;;;5014051;28;20045;-76
2023/06/02 12:09:15;;;;;;;5.55;1.75;;;21.60;63.20;;;;;;5014372;28;20045;-76
2023/06/02 12:11:41;;;;;;;11.32;2.15;;;21.80;63.80;;;;;;5014148;28;20188;-77
2023/06/02 12:14:08;;;;;;;6.47;1.88;;;21.80;61.00;;;;;;5014215;28;20371;-76
2023/06/02 12:16:40;;;;;;;5.32;1.75;;;21.90;58.40;;;;;;4995750;28;20494;-76
2023/06/02 12:19:19;;;;;;;5.00;1.75;;;21.90;60.00;;;;;;4998406;28;20046;-76
2023/06/02 12:21:46;;;;;;;6.82;1.70;;;21.70;57.80;;;;;;4997762;28;20088;-76
2023/06/02 12:24:30;;;;;;;6.75;1.60;;;21.80;59.80;;;;;;4981156;28;20057;-76
2023/06/02 12:26:57;;;;;;;4.97;1.63;;;21.70;58.60;;;;;;4997318;28;20045;-77
2023/06/02 12:29:24;;;;;;;5.07;1.70;;;21.90;58.50;;;;;;5013690;28;20096;-77
2023/06/02 12:32:05;;;;;;;5.13;1.70;;;22.10;55.80;;;;;;4997271;28;20041;-76
2023/06/02 12:34:31;;;;;;;5.35;1.60;;;22.20;54.60;;;;;;5013961;28;20064;-76
2023/06/02 12:36:58;;;;;;;5.75;1.60;;;22.00;54.40;;;;;;5013679;28;20042;-76
2023/06/02 12:39:24;;;;;;;7.07;1.77;;;22.10;53.70;;;;;;5013806;28;20502;-76
2023/06/02 12:41:52;;;;;;;6.15;1.85;;;22.00;54.50;;;;;;4997156;28;20107;-76
2023/06/02 12:44:21;;;;;;;5.68;1.85;;;22.00;54.70;;;;;;5013464;28;20034;-77
2023/06/02 12:46:47;;;;;;;7.05;2.00;;;22.30;56.60;;;;;;5013479;28;20050;-77